DK-0028 weather

Public forecast

Using degrees Celsius for public forecast. Weather courtesy of forecast.io.

Closest aviation weather report (METAR) to Varde Flyveplads

Closest report is Esbjerg Airport, 6.2 nm (11.6 km) SE. Retrieved 2020/08/11 11:20 UTC (24 minutes ago):

EKEB 111120Z AUTO 12007KT 070V150 //// // NCD 28/20 Q1021

Closest aviation forecast (TAF) to Varde Flyveplads

Forecast is more than 12 hours old.

Closest forecast is Esbjerg Airport, 6.2 nm (11.6 km) SE. Retrieved 2015/09/18 18:00 UTC (5 years ago):

TAF EKEB 181707Z 1818/1822 24008KT 9999 SCT025 TEMPO 1818/1820 -SHRA SCT020CB